createdAt,value
2018-06-08T00:01:05.374Z,18.30
2018-06-08T00:03:33.610Z,18.20
2018-06-08T00:06:01.801Z,18.10
2018-06-08T00:08:30.009Z,17.90
2018-06-08T00:10:58.200Z,17.90
2018-06-08T00:13:26.408Z,18.00
2018-06-08T00:15:54.633Z,18.00
2018-06-08T00:18:22.877Z,18.00
2018-06-08T00:20:51.096Z,18.00
2018-06-08T00:23:19.258Z,18.10
2018-06-08T00:25:47.477Z,18.10
2018-06-08T00:28:15.725Z,18.20
2018-06-08T00:30:43.924Z,18.20
2018-06-08T00:33:12.150Z,18.20
2018-06-08T00:35:40.340Z,18.20
2018-06-08T00:38:08.613Z,18.20
2018-06-08T00:40:36.828Z,18.30
2018-06-08T00:43:05.069Z,18.40
2018-06-08T00:45:33.297Z,18.30
2018-06-08T00:48:01.480Z,18.20
2018-06-08T00:50:29.685Z,17.90
2018-06-08T00:52:57.926Z,17.80
2018-06-08T00:55:26.125Z,17.80
2018-06-08T00:57:54.317Z,17.90
2018-06-08T01:00:22.496Z,17.90
2018-06-08T01:02:50.717Z,17.90
2018-06-08T01:05:18.992Z,17.70
2018-06-08T01:07:47.170Z,17.60
2018-06-08T01:10:15.381Z,17.70
2018-06-08T01:12:43.546Z,17.70
2018-06-08T01:15:11.765Z,17.80
2018-06-08T01:17:39.997Z,17.80
2018-06-08T01:20:08.194Z,17.90
2018-06-08T01:22:36.447Z,17.90
2018-06-08T01:25:04.637Z,17.90
2018-06-08T01:27:32.857Z,18.00
2018-06-08T01:30:01.077Z,18.00
2018-06-08T01:32:29.477Z,17.90
2018-06-08T01:34:57.713Z,17.90
2018-06-08T01:37:26.145Z,17.90
2018-06-08T01:39:54.388Z,17.90
2018-06-08T01:42:22.592Z,17.90
2018-06-08T01:44:50.826Z,17.90
2018-06-08T01:47:19.044Z,17.90
2018-06-08T01:49:47.261Z,17.90
2018-06-08T01:52:15.486Z,18.00
2018-06-08T01:54:43.701Z,17.80
2018-06-08T01:57:11.873Z,17.80
2018-06-08T01:59:40.101Z,17.70
2018-06-08T02:02:08.305Z,17.70
2018-06-08T02:04:36.528Z,17.40
2018-06-08T02:07:04.748Z,17.20
2018-06-08T02:09:32.929Z,17.00
2018-06-08T02:12:01.155Z,17.00
2018-06-08T02:14:29.333Z,17.00
2018-06-08T02:16:57.585Z,17.00
2018-06-08T02:19:25.813Z,17.10
2018-06-08T02:24:21.960Z,17.10
2018-06-08T02:26:50.156Z,17.10
2018-06-08T02:29:18.494Z,17.20
2018-06-08T02:31:46.737Z,17.20
2018-06-08T02:34:14.911Z,17.20
2018-06-08T02:36:43.125Z,17.20
2018-06-08T02:39:11.313Z,17.30
2018-06-08T02:41:39.548Z,17.20
2018-06-08T02:44:07.774Z,17.10
2018-06-08T02:46:35.944Z,17.10
2018-06-08T02:49:04.225Z,17.10
2018-06-08T02:51:32.405Z,17.00
2018-06-08T02:54:00.632Z,17.00
2018-06-08T02:56:28.846Z,16.90
2018-06-08T02:58:57.029Z,16.70
2018-06-08T03:01:25.213Z,16.80
2018-06-08T03:03:53.397Z,16.80
2018-06-08T03:06:21.621Z,16.80
2018-06-08T03:08:49.881Z,16.80
2018-06-08T03:11:18.065Z,16.80
2018-06-08T03:13:46.254Z,16.80
2018-06-08T03:16:14.441Z,16.80
2018-06-08T03:18:42.652Z,16.80
2018-06-08T03:21:10.898Z,16.90
2018-06-08T03:23:39.090Z,16.90
2018-06-08T03:26:07.313Z,16.80
2018-06-08T03:28:35.481Z,16.60
2018-06-08T03:31:03.697Z,16.60
2018-06-08T03:33:31.893Z,16.70
2018-06-08T03:36:00.112Z,16.60
2018-06-08T03:38:28.316Z,16.60
2018-06-08T03:40:56.559Z,16.60
2018-06-08T03:43:24.849Z,16.60
2018-06-08T03:45:53.126Z,16.40
2018-06-08T03:48:21.345Z,16.30
2018-06-08T03:50:49.558Z,16.20
2018-06-08T03:53:17.741Z,16.40
2018-06-08T03:55:45.954Z,16.50
2018-06-08T03:58:14.169Z,16.50
2018-06-08T04:00:42.345Z,16.40
2018-06-08T04:03:10.565Z,16.50
2018-06-08T04:05:38.749Z,16.60
2018-06-08T04:08:06.985Z,16.80
2018-06-08T04:10:35.206Z,16.90
2018-06-08T04:13:03.381Z,17.00
2018-06-08T04:15:31.617Z,17.10
2018-06-08T04:17:59.780Z,17.20
2018-06-08T04:20:27.993Z,17.30
2018-06-08T04:22:56.196Z,17.30
2018-06-08T04:25:24.368Z,17.40
2018-06-08T04:27:52.573Z,17.40
2018-06-08T04:30:20.765Z,17.40
2018-06-08T04:32:49.057Z,17.50
2018-06-08T04:35:17.254Z,17.50
2018-06-08T04:37:46.434Z,17.50
2018-06-08T04:40:14.657Z,17.50
2018-06-08T04:42:42.841Z,17.50
2018-06-08T04:45:11.057Z,17.50
2018-06-08T04:47:39.333Z,17.50
2018-06-08T04:50:07.589Z,17.50
2018-06-08T04:52:35.934Z,17.60
2018-06-08T04:55:04.177Z,17.60
2018-06-08T04:57:32.934Z,17.60
2018-06-08T05:00:01.533Z,17.70
2018-06-08T05:02:30.563Z,17.90
2018-06-08T05:04:59.271Z,18.00
2018-06-08T05:07:27.930Z,18.20
2018-06-08T05:09:56.698Z,18.30
2018-06-08T05:12:25.468Z,18.40
2018-06-08T05:14:54.112Z,18.40
2018-06-08T05:17:22.334Z,18.40
2018-06-08T05:19:50.514Z,18.40
2018-06-08T05:22:18.721Z,18.40
2018-06-08T05:24:46.941Z,18.60
2018-06-08T05:27:15.129Z,18.80
2018-06-08T05:29:43.361Z,19.10
2018-06-08T05:32:11.541Z,19.10
2018-06-08T05:34:39.786Z,19.20
2018-06-08T05:37:08.012Z,19.20
2018-06-08T05:39:36.189Z,19.00
2018-06-08T05:42:04.437Z,18.70
2018-06-08T05:44:32.629Z,18.80
2018-06-08T05:47:00.856Z,18.60
2018-06-08T05:49:29.119Z,18.40
2018-06-08T05:51:57.297Z,18.30
2018-06-08T05:54:25.594Z,18.50
2018-06-08T05:56:53.777Z,18.40
2018-06-08T05:59:22.013Z,18.50
2018-06-08T06:01:50.241Z,18.50
2018-06-08T06:04:18.449Z,18.60
2018-06-08T06:06:46.698Z,18.70
2018-06-08T06:09:14.878Z,18.70
2018-06-08T06:11:43.209Z,18.80
2018-06-08T06:14:11.430Z,19.10
2018-06-08T06:16:39.628Z,19.40
2018-06-08T06:19:07.876Z,19.80
2018-06-08T06:21:36.061Z,20.20
2018-06-08T06:24:04.301Z,20.30
2018-06-08T06:26:32.502Z,20.30
2018-06-08T06:29:00.689Z,20.30
2018-06-08T06:31:28.902Z,20.20
2018-06-08T06:33:57.072Z,20.20
2018-06-08T06:36:25.285Z,20.20
2018-06-08T06:38:53.503Z,20.10
2018-06-08T06:41:21.706Z,20.30
2018-06-08T06:43:49.982Z,20.60
2018-06-08T06:46:18.268Z,21.00
2018-06-08T06:48:46.501Z,21.30
2018-06-08T06:51:14.713Z,21.70
2018-06-08T06:53:42.917Z,21.90
2018-06-08T06:58:39.129Z,22.20
2018-06-08T07:01:07.353Z,22.30
2018-06-08T07:03:35.569Z,22.70
2018-06-08T07:06:03.792Z,22.80
2018-06-08T07:08:32.070Z,22.80
2018-06-08T07:11:00.265Z,22.80
2018-06-08T07:13:28.517Z,22.90
2018-06-08T07:15:56.736Z,23.40
2018-06-08T07:18:24.921Z,23.70
2018-06-08T07:20:53.158Z,23.70
2018-06-08T07:23:21.337Z,23.80
2018-06-08T07:25:49.553Z,23.80
2018-06-08T07:28:17.797Z,24.00
2018-06-08T07:30:45.990Z,24.20
2018-06-08T07:33:14.205Z,24.10
2018-06-08T07:35:42.400Z,24.20
2018-06-08T07:38:10.641Z,24.30
2018-06-08T07:40:38.890Z,24.10
2018-06-08T07:43:07.090Z,24.10
2018-06-08T07:45:35.317Z,24.30
2018-06-08T07:48:03.515Z,24.50
2018-06-08T07:50:31.752Z,24.60
2018-06-08T07:52:59.965Z,24.60
2018-06-08T07:55:28.195Z,24.80
2018-06-08T07:57:56.434Z,24.80
2018-06-08T08:00:24.671Z,24.20
2018-06-08T08:02:52.896Z,24.10
2018-06-08T08:05:21.165Z,24.30
2018-06-08T08:07:49.360Z,24.30
2018-06-08T08:10:17.577Z,23.80
2018-06-08T08:12:45.762Z,23.70
2018-06-08T08:15:13.989Z,24.00
2018-06-08T08:17:42.241Z,24.10
2018-06-08T08:20:10.437Z,23.90
2018-06-08T08:22:38.634Z,23.90
2018-06-08T08:25:06.835Z,23.80
2018-06-08T08:27:35.065Z,24.30
2018-06-08T08:30:03.406Z,24.50
2018-06-08T08:32:31.601Z,24.80
2018-06-08T08:34:59.821Z,25.00
2018-06-08T08:37:28.005Z,25.20
2018-06-08T08:39:56.201Z,25.00
2018-06-08T08:42:24.717Z,25.00
2018-06-08T08:44:52.921Z,25.10
2018-06-08T08:47:21.181Z,25.10
2018-06-08T08:49:49.404Z,25.20
2018-06-08T08:52:17.684Z,25.40
2018-06-08T08:54:45.910Z,25.50
2018-06-08T08:57:14.130Z,25.70
2018-06-08T08:59:42.373Z,26.00
2018-06-08T09:02:10.589Z,26.20
2018-06-08T09:04:38.875Z,26.40
2018-06-08T09:07:07.118Z,26.10
2018-06-08T09:09:35.309Z,25.60
2018-06-08T09:12:03.590Z,25.60
2018-06-08T09:14:31.847Z,25.40
2018-06-08T09:17:00.085Z,25.30
2018-06-08T09:19:28.354Z,25.60
2018-06-08T09:21:56.562Z,25.90
2018-06-08T09:24:24.781Z,25.90
2018-06-08T09:26:52.987Z,26.10
2018-06-08T09:29:21.221Z,26.40
2018-06-08T09:31:49.484Z,26.50
2018-06-08T09:34:17.686Z,26.20
2018-06-08T09:36:45.904Z,25.80
2018-06-08T09:39:14.085Z,25.50
2018-06-08T09:41:42.332Z,25.60
2018-06-08T09:44:10.570Z,25.50
2018-06-08T09:46:38.761Z,25.50
2018-06-08T09:49:07.009Z,25.70
2018-06-08T09:51:35.222Z,26.00
2018-06-08T09:54:03.555Z,26.40
2018-06-08T09:56:31.873Z,26.60
2018-06-08T09:59:00.144Z,26.20
2018-06-08T10:01:28.508Z,26.30
2018-06-08T10:03:56.720Z,26.50
2018-06-08T10:06:24.997Z,26.80
2018-06-08T10:08:53.264Z,26.90
2018-06-08T10:11:21.597Z,26.90
2018-06-08T10:13:49.861Z,27.20
2018-06-08T10:16:18.593Z,27.00
2018-06-08T10:18:46.821Z,26.90
2018-06-08T10:21:15.037Z,27.00
2018-06-08T10:23:43.709Z,27.30
2018-06-08T10:26:12.027Z,27.10
2018-06-08T10:28:40.989Z,27.10
2018-06-08T10:31:09.220Z,27.10
2018-06-08T10:33:37.467Z,27.00
2018-06-08T10:36:05.764Z,26.90
2018-06-08T10:38:33.997Z,27.20
2018-06-08T10:41:02.153Z,27.10
2018-06-08T10:43:30.371Z,26.90
2018-06-08T10:45:58.698Z,26.70
2018-06-08T10:48:26.905Z,26.80
2018-06-08T10:50:55.381Z,26.70
2018-06-08T10:53:23.648Z,26.40
2018-06-08T10:55:51.868Z,26.10
2018-06-08T10:58:20.145Z,25.50
2018-06-08T11:00:48.367Z,25.40
2018-06-08T11:03:16.577Z,26.10
2018-06-08T11:05:44.797Z,26.60
2018-06-08T11:08:13.047Z,27.30
2018-06-08T11:10:41.304Z,27.80
2018-06-08T11:13:09.506Z,28.00
2018-06-08T11:15:37.742Z,28.40
2018-06-08T11:18:05.926Z,28.70
2018-06-08T11:20:34.228Z,28.50
2018-06-08T11:23:02.449Z,28.50
2018-06-08T11:25:30.638Z,28.50
2018-06-08T11:27:58.874Z,28.60
2018-06-08T11:30:27.098Z,28.70
2018-06-08T11:32:55.318Z,29.00
2018-06-08T11:35:23.565Z,29.20
2018-06-08T11:37:51.746Z,29.20
2018-06-08T11:40:19.981Z,29.10
2018-06-08T11:42:48.170Z,29.30
2018-06-08T11:45:16.412Z,29.60
2018-06-08T11:47:44.639Z,30.00
2018-06-08T11:50:12.815Z,29.80
2018-06-08T11:52:41.059Z,29.90
2018-06-08T11:55:09.256Z,30.10
2018-06-08T11:57:37.502Z,30.40
2018-06-08T12:00:05.762Z,29.60
2018-06-08T12:02:34.005Z,29.10
2018-06-08T12:05:02.254Z,28.60
2018-06-08T12:07:30.552Z,29.00
2018-06-08T12:09:58.798Z,29.40
2018-06-08T12:12:27.035Z,29.70
2018-06-08T12:14:55.244Z,29.60
2018-06-08T12:17:23.494Z,29.80
2018-06-08T12:19:51.701Z,30.20
2018-06-08T12:22:19.939Z,30.10
2018-06-08T12:24:48.190Z,30.30
2018-06-08T12:27:16.399Z,30.60
2018-06-08T12:29:44.653Z,30.80
2018-06-08T12:32:12.907Z,30.60
2018-06-08T12:34:41.138Z,30.70
2018-06-08T12:37:09.382Z,30.90
2018-06-08T12:39:37.611Z,31.20
2018-06-08T12:42:05.967Z,31.10
2018-06-08T12:44:34.199Z,30.80
2018-06-08T12:47:02.462Z,31.00
2018-06-08T12:49:30.797Z,31.00
2018-06-08T12:51:58.986Z,30.80
2018-06-08T12:54:27.209Z,30.70
2018-06-08T12:56:55.414Z,30.70
2018-06-08T12:59:23.710Z,30.20
2018-06-08T13:01:51.948Z,30.40
2018-06-08T13:04:20.178Z,30.70
2018-06-08T13:06:48.437Z,30.60
2018-06-08T13:09:16.652Z,30.10
2018-06-08T13:11:44.926Z,29.90
2018-06-08T13:14:13.173Z,30.20
2018-06-08T13:16:41.390Z,30.00
2018-06-08T13:19:09.653Z,30.30
2018-06-08T13:21:37.837Z,29.60
2018-06-08T13:24:06.213Z,29.30
2018-06-08T13:26:34.486Z,29.10
2018-06-08T13:29:02.751Z,29.40
2018-06-08T13:31:31.006Z,29.80
2018-06-08T13:33:59.237Z,29.50
2018-06-08T13:36:27.462Z,29.30
2018-06-08T13:38:55.698Z,29.60
2018-06-08T13:41:23.896Z,29.60
2018-06-08T13:43:52.129Z,29.70
2018-06-08T13:46:31.196Z,30.10
2018-06-08T13:48:59.477Z,30.60
2018-06-08T13:51:27.710Z,30.70
2018-06-08T13:53:55.905Z,30.70
2018-06-08T13:56:24.137Z,30.20
2018-06-08T13:58:52.390Z,30.10
2018-06-08T14:01:20.630Z,30.40
2018-06-08T14:03:48.878Z,30.70
2018-06-08T14:06:17.109Z,30.70
2018-06-08T14:08:45.359Z,30.60
2018-06-08T14:11:13.587Z,30.90
2018-06-08T14:13:41.846Z,30.80
2018-06-08T14:16:10.062Z,31.10
2018-06-08T14:18:38.302Z,31.10
2018-06-08T14:21:06.627Z,30.80
2018-06-08T14:23:34.844Z,30.50
2018-06-08T14:26:03.135Z,30.00
2018-06-08T14:28:31.389Z,29.50
2018-06-08T14:30:59.636Z,29.30
2018-06-08T14:33:27.869Z,29.40
2018-06-08T14:35:56.114Z,29.40
2018-06-08T14:38:24.350Z,29.50
2018-06-08T14:40:52.634Z,29.50
2018-06-08T14:43:20.841Z,29.50
2018-06-08T14:45:49.082Z,29.50
2018-06-08T14:48:18.217Z,29.50
2018-06-08T14:50:46.444Z,29.40
2018-06-08T14:53:14.710Z,29.40
2018-06-08T14:55:42.938Z,29.60
2018-06-08T14:58:11.153Z,29.30
2018-06-08T15:00:39.398Z,29.20
2018-06-08T15:03:07.636Z,29.10
2018-06-08T15:05:35.896Z,28.90
2018-06-08T15:08:04.186Z,28.90
2018-06-08T15:10:32.416Z,28.90
2018-06-08T15:13:00.638Z,28.60
2018-06-08T15:15:28.874Z,27.80
2018-06-08T15:17:57.118Z,27.10
2018-06-08T15:20:25.340Z,26.50
2018-06-08T15:22:53.581Z,26.10
2018-06-08T15:25:21.795Z,25.70
2018-06-08T15:27:50.052Z,25.30
2018-06-08T15:30:18.280Z,24.80
2018-06-08T15:32:46.480Z,24.50
2018-06-08T15:35:14.700Z,24.60
2018-06-08T15:37:49.669Z,24.20
2018-06-08T15:40:17.917Z,24.30
2018-06-08T15:42:46.142Z,24.40
2018-06-08T15:45:14.321Z,24.40
2018-06-08T15:47:43.233Z,24.50
2018-06-08T15:50:11.461Z,24.60
2018-06-08T15:52:39.717Z,24.80
2018-06-08T15:55:07.987Z,25.10
2018-06-08T15:57:36.210Z,25.30
2018-06-08T16:00:04.903Z,25.60
2018-06-08T16:02:33.090Z,25.70
2018-06-08T16:05:01.309Z,25.80
2018-06-08T16:07:29.579Z,26.00
2018-06-08T16:09:57.765Z,26.10
2018-06-08T16:12:25.982Z,26.10
2018-06-08T16:14:54.573Z,26.10
2018-06-08T16:17:23.159Z,26.00
2018-06-08T16:19:51.502Z,25.80
2018-06-08T16:22:19.725Z,25.80
2018-06-08T16:24:47.972Z,25.60
2018-06-08T16:27:16.195Z,25.60
2018-06-08T16:29:44.494Z,25.60
2018-06-08T16:32:12.746Z,25.90
2018-06-08T16:34:40.948Z,26.10
2018-06-08T16:37:09.245Z,26.30
2018-06-08T16:39:37.475Z,26.40
2018-06-08T16:42:05.686Z,26.50
2018-06-08T16:44:33.924Z,26.50
2018-06-08T16:47:02.207Z,26.60
2018-06-08T16:49:30.431Z,26.50
2018-06-08T16:51:58.662Z,26.20
2018-06-08T16:54:26.904Z,25.90
2018-06-08T16:56:55.095Z,25.40
2018-06-08T16:59:23.469Z,24.70
2018-06-08T17:01:51.734Z,24.50
2018-06-08T17:04:19.905Z,24.60
2018-06-08T17:06:48.126Z,24.30
2018-06-08T17:09:16.313Z,24.20
2018-06-08T17:11:44.537Z,24.10
2018-06-08T17:14:12.781Z,24.00
2018-06-08T17:16:41.006Z,24.10
2018-06-08T17:19:09.225Z,24.10
2018-06-08T17:21:37.458Z,24.20
2018-06-08T17:24:05.717Z,24.20
2018-06-08T17:26:33.930Z,24.10
2018-06-08T17:29:02.144Z,24.30
2018-06-08T17:31:30.334Z,24.40
2018-06-08T17:33:58.617Z,24.40
2018-06-08T17:36:26.829Z,24.10
2018-06-08T17:38:55.049Z,24.00
2018-06-08T17:41:23.273Z,23.70
2018-06-08T17:43:51.465Z,23.70
2018-06-08T17:46:19.849Z,23.70
2018-06-08T17:48:48.078Z,23.80
2018-06-08T17:51:16.289Z,23.90
2018-06-08T17:53:44.509Z,24.00
2018-06-08T17:56:12.714Z,24.00
2018-06-08T17:58:40.984Z,23.90
2018-06-08T18:01:09.223Z,23.90
2018-06-08T18:03:37.446Z,23.80
2018-06-08T18:06:05.726Z,23.50
2018-06-08T18:08:33.965Z,23.30
2018-06-08T18:11:02.217Z,23.30
2018-06-08T18:13:30.433Z,23.10
2018-06-08T18:15:58.722Z,23.00
2018-06-08T18:18:26.938Z,23.00
2018-06-08T18:20:55.170Z,22.90
2018-06-08T18:23:23.453Z,22.90
2018-06-08T18:25:51.666Z,22.80
2018-06-08T18:28:19.910Z,22.70
2018-06-08T18:30:48.125Z,22.60
2018-06-08T18:33:16.461Z,22.70
2018-06-08T18:35:44.638Z,22.50
2018-06-08T18:38:12.881Z,22.50
2018-06-08T18:40:41.077Z,22.40
2018-06-08T18:43:09.347Z,22.40
2018-06-08T18:45:37.656Z,22.40
2018-06-08T18:48:06.069Z,22.40
2018-06-08T18:50:34.373Z,22.60
2018-06-08T18:53:02.564Z,22.50
2018-06-08T18:55:30.791Z,22.40
2018-06-08T18:57:59.037Z,22.40
2018-06-08T19:00:27.284Z,22.30
2018-06-08T19:02:55.598Z,22.10
2018-06-08T19:05:23.821Z,21.90
2018-06-08T19:07:52.057Z,21.80
2018-06-08T19:10:20.294Z,21.60
2018-06-08T19:12:48.586Z,21.40
2018-06-08T19:15:16.856Z,21.30
2018-06-08T19:17:45.054Z,21.30
2018-06-08T19:20:13.279Z,21.30
2018-06-08T19:22:41.787Z,21.40
2018-06-08T19:25:10.066Z,21.40
2018-06-08T19:27:38.401Z,21.40
2018-06-08T19:30:06.630Z,21.40
2018-06-08T19:32:34.907Z,21.20
2018-06-08T19:35:03.277Z,21.00
2018-06-08T19:37:31.521Z,21.10
2018-06-08T19:39:59.778Z,21.10
2018-06-08T19:42:28.900Z,21.20
2018-06-08T19:44:57.170Z,21.10
2018-06-08T19:47:25.408Z,21.00
2018-06-08T19:49:53.697Z,20.90
2018-06-08T19:52:21.901Z,20.90
2018-06-08T19:54:50.123Z,20.90
2018-06-08T19:57:18.379Z,20.80
2018-06-08T19:59:46.610Z,20.70
2018-06-08T20:02:14.869Z,20.50
2018-06-08T20:04:43.149Z,20.40
2018-06-08T20:07:11.365Z,20.40
2018-06-08T20:09:39.645Z,20.30
2018-06-08T20:12:07.865Z,20.20
2018-06-08T20:17:04.337Z,20.20
2018-06-08T20:19:32.540Z,20.20
2018-06-08T20:22:00.765Z,20.20
2018-06-08T20:24:28.959Z,20.20
2018-06-08T20:26:57.190Z,20.20
2018-06-08T20:29:25.377Z,20.10
2018-06-08T20:31:53.598Z,20.00
2018-06-08T20:34:21.837Z,19.90
2018-06-08T20:36:50.058Z,19.80
2018-06-08T20:39:18.254Z,19.80
2018-06-08T20:41:46.481Z,19.80
2018-06-08T20:44:14.687Z,19.70
2018-06-08T20:46:42.917Z,19.70
2018-06-08T20:49:11.117Z,19.70
2018-06-08T20:51:39.358Z,19.80
2018-06-08T20:54:07.617Z,19.80
2018-06-08T20:56:35.806Z,19.90
2018-06-08T20:59:04.046Z,20.00
2018-06-08T21:01:32.246Z,20.10
2018-06-08T21:04:00.767Z,20.20
2018-06-08T21:06:28.985Z,20.30
2018-06-08T21:08:57.193Z,20.30
2018-06-08T21:11:25.411Z,20.20
2018-06-08T21:13:53.706Z,20.20
2018-06-08T21:16:21.996Z,20.00
2018-06-08T21:18:50.215Z,20.00
2018-06-08T21:21:18.402Z,19.90
2018-06-08T21:23:46.726Z,19.90
2018-06-08T21:26:14.913Z,19.90
2018-06-08T21:28:43.137Z,19.80
2018-06-08T21:31:11.478Z,19.70
2018-06-08T21:33:39.669Z,19.80
2018-06-08T21:36:07.939Z,19.90
2018-06-08T21:38:36.142Z,20.00
2018-06-08T21:41:04.375Z,19.80
2018-06-08T21:43:32.606Z,19.50
2018-06-08T21:46:00.833Z,19.20
2018-06-08T21:48:29.099Z,19.20
2018-06-08T21:50:57.304Z,19.20
2018-06-08T21:53:25.517Z,19.30
2018-06-08T21:55:53.793Z,19.40
2018-06-08T21:58:21.989Z,19.20
2018-06-08T22:00:50.262Z,19.10
2018-06-08T22:03:18.588Z,19.20
2018-06-08T22:05:46.902Z,19.30
2018-06-08T22:08:15.138Z,19.30
2018-06-08T22:10:43.329Z,19.20
2018-06-08T22:13:11.549Z,19.30
2018-06-08T22:15:39.766Z,19.20
2018-06-08T22:18:08.038Z,19.10
2018-06-08T22:20:36.273Z,18.80
2018-06-08T22:23:04.448Z,18.80
2018-06-08T22:25:32.691Z,18.90
2018-06-08T22:28:01.089Z,19.00
2018-06-08T22:30:29.317Z,19.00
2018-06-08T22:32:57.566Z,19.10
2018-06-08T22:35:25.757Z,19.10
2018-06-08T22:37:53.985Z,18.90
2018-06-08T22:40:22.165Z,18.60
2018-06-08T22:42:50.398Z,18.40
2018-06-08T22:45:18.613Z,18.30
2018-06-08T22:47:46.806Z,18.30
2018-06-08T22:50:15.043Z,18.30
2018-06-08T22:52:43.226Z,18.30
2018-06-08T22:55:11.441Z,18.30
2018-06-08T22:57:39.673Z,18.20
2018-06-08T23:00:08.382Z,18.20
2018-06-08T23:02:36.589Z,18.20
2018-06-08T23:05:04.885Z,18.40
2018-06-08T23:07:33.150Z,18.50
2018-06-08T23:10:01.401Z,18.40
2018-06-08T23:12:29.605Z,18.30
2018-06-08T23:14:57.838Z,18.10
2018-06-08T23:17:26.016Z,18.10
2018-06-08T23:19:54.238Z,18.20
2018-06-08T23:22:22.461Z,18.10
2018-06-08T23:24:50.637Z,18.20
2018-06-08T23:27:18.856Z,18.30
2018-06-08T23:29:47.020Z,18.20
2018-06-08T23:32:15.253Z,18.20
2018-06-08T23:34:43.469Z,18.10
2018-06-08T23:37:11.646Z,18.00
2018-06-08T23:39:39.873Z,18.10
2018-06-08T23:42:08.063Z,18.20
2018-06-08T23:44:36.296Z,18.20
2018-06-08T23:47:04.533Z,18.10
2018-06-08T23:49:32.726Z,18.00
2018-06-08T23:52:00.949Z,17.80
2018-06-08T23:54:29.150Z,18.00
2018-06-08T23:56:57.369Z,18.20
2018-06-08T23:59:25.582Z,18.20
